San Angelo Regional Mathis Field
KSJT : now visible

Airfield :











YOU CAN JOIN US ON...

 
LOGIN :

Register | Disclaimer

   EN    FR    IT 

 









Legend :    VFR   Marginal VFR   IFR   Intensive IFR   Very Intensive IFR
Visi :
Ceiling :
>= 8 km
>= 3000ft
5 to 8 km
1000 to 3000 ft
1500m to 5 km
500 to 1000 ft
800 to 1500m
200 to 500 ft
< 800m
< 200 ft
Symbols :   Thunderstorms  Fog  Heavy snow  Heavy precipitations  Wind > 20 kt






- Airport Elevation : 1919 ft
- IATA code : SJT


KSJT - San Angelo Regional Mathis Field

CURRENT METAR :
  • 230751Z AUTO 05004KT 9SM CLR 20/19 A2983 RMK AO2 SLP074 T02000189

EXPIRED METARs :
  • 230651Z AUTO 06005KT 10SM CLR 21/19 A2984 RMK AO2 SLP079 T02060189
  • 230551Z AUTO 07005KT 10SM CLR 21/19 A2985 RMK AO2 SLP081 T02060189 10239 20206 403440206 50009
  • 230451Z AUTO 07006KT 10SM CLR 21/19 A2986 RMK AO2 SLP085 T02110189

TAF KSJT
Valid from the 23 at 07:00 until the 24 at 06:00 UTC


230647Z 2307/2406 07005KT P6SM SCT025
FM230900 12006KT P6SM VCSH BKN020
FM231500 18010G17KT P6SM VCTS SCT030 BKN040CB
FM231800 21011G18KT P6SM SCT060
FM240000 22006KT P6SM SKC
KZFW FIR / North America



MET'MAP, your aeronautical weather chart ! - Copyright ORBIFLY December 2007 - Disclaimer

ORBIFLY MET'MAP TEAM :

Programming & Development : Alexandra Zaïnal
Original concept : Baudouin d'Aumeries
Technical & hardware support : Manuel Goepfert
Assistance : Marc-Olivier Méhu




SOURCES & CREDITS :

   NOAA       Earth
Advisory